Time;durP1;ratioP1;P1;durP2;ratioP2;P2;SDS_P1;SDS_P2;PMS_P1;PMS_P2;Temp;Humidity;BMP_temperature;BMP_pressure;BME280_temperature;BME280_humidity;BME280_pressure;Samples;Min_cycle;Max_cycle;Signal;HPM_P1;HPM_P2
2023/01/12 00:01:54;;;;;;;;;;;;;;;7.42;100.00;100967.78;5095533;28;19923;-61
2023/01/12 00:04:20;;;;;;;;;;;;;;;7.43;100.00;100949.13;5091403;28;19954;-60
2023/01/12 00:06:45;;;;;;;;;;;;;;;7.53;100.00;100959.69;5096823;28;19931;-61
2023/01/12 00:09:10;;;;;;;;;;;;;;;7.57;100.00;100949.63;5090855;28;19995;-61
2023/01/12 00:11:36;;;;;;;;;;;;;;;7.62;100.00;100948.19;5078788;28;19967;-61
2023/01/12 00:14:01;;;;;;;;;;;;;;;7.68;100.00;100954.69;5081151;28;19969;-61
2023/01/12 00:16:39;;;;;;;;;;;;;;;7.74;100.00;100940.88;5096857;28;19916;-61
2023/01/12 00:19:12;;;;;;;;;;;;;;;7.80;100.00;100940.28;5084473;28;19943;-60
2023/01/12 00:21:42;;;;;;;;;;;;;;;7.83;100.00;100941.81;5084078;28;19912;-60
2023/01/12 00:24:07;;;;;;;;;;;;;;;7.88;100.00;100939.53;5080532;28;19916;-60
2023/01/12 00:26:32;;;;;;;;;;;;;;;7.92;100.00;100951.47;5086670;28;19923;-60
2023/01/12 00:28:58;;;;;;;;;;;;;;;7.94;100.00;100944.22;5087239;28;19924;-60
2023/01/12 00:31:23;;;;;;;;;;;;;;;7.92;100.00;100925.03;5082673;28;19977;-61
2023/01/12 00:33:48;;;;;;;;;;;;;;;7.94;100.00;100923.06;5084159;28;20363;-62
2023/01/12 00:36:14;;;;;;;;;;;;;;;7.93;100.00;100927.53;5096660;28;19923;-61
2023/01/12 00:38:39;;;;;;;;;;;;;;;7.94;100.00;100923.91;5086333;28;19968;-61
2023/01/12 00:41:08;;;;;;;;;;;;;;;7.93;100.00;100924.88;5080733;28;19916;-61
2023/01/12 00:46:17;;;;;;;;;;;;;;;7.95;100.00;100916.81;5083607;28;20287;-61
2023/01/12 00:48:43;;;;;;;;;;;;;;;7.97;100.00;100909.53;5076324;28;19921;-62
2023/01/12 00:51:08;;;;;;;;;;;;;;;7.98;100.00;100908.56;5080740;28;20398;-60
2023/01/12 00:53:33;;;;;;;;;;;;;;;7.95;100.00;100903.59;5080109;28;19916;-60
2023/01/12 00:56:02;;;;;;;;;;;;;;;7.87;100.00;100898.22;5081355;28;19981;-61
2023/01/12 00:58:27;;;;;;;;;;;;;;;7.80;100.00;100905.06;5079215;28;19919;-61
2023/01/12 01:00:53;;;;;;;;;;;;;;;7.80;100.00;100902.44;5088221;28;19965;-61
2023/01/12 01:03:18;;;;;;;;;;;;;;;7.77;100.00;100901.75;5085361;28;19969;-61
2023/01/12 01:05:43;;;;;;;;;;;;;;;7.76;100.00;100889.53;5087247;28;19934;-61
2023/01/12 01:08:08;;;;;;;;;;;;;;;7.75;100.00;100873.81;5082922;28;20397;-61
2023/01/12 01:10:34;;;;;;;;;;;;;;;7.74;100.00;100875.63;5081192;28;19957;-63
2023/01/12 01:12:59;;;;;;;;;;;;;;;7.76;100.00;100871.00;5079739;28;19951;-61
2023/01/12 01:15:24;;;;;;;;;;;;;;;7.75;100.00;100874.63;5078399;28;19924;-62
2023/01/12 01:17:49;;;;;;;;;;;;;;;7.79;100.00;100869.88;5078987;28;19920;-60
2023/01/12 01:20:14;;;;;;;;;;;;;;;7.81;100.00;100865.31;5088427;28;19924;-61
2023/01/12 01:22:40;;;;;;;;;;;;;;;7.83;100.00;100867.78;5079990;28;19916;-61
2023/01/12 01:25:05;;;;;;;;;;;;;;;7.85;100.00;100863.19;5084179;28;19916;-61
2023/01/12 01:27:30;;;;;;;;;;;;;;;7.81;100.00;100859.19;5077288;28;20295;-61
2023/01/12 01:29:56;;;;;;;;;;;;;;;7.76;100.00;100857.78;5080606;28;19916;-62
2023/01/12 01:32:21;;;;;;;;;;;;;;;7.72;100.00;100851.16;5090239;28;19923;-61
2023/01/12 01:34:47;;;;;;;;;;;;;;;7.69;100.00;100845.34;5085318;28;19912;-61
2023/01/12 01:37:12;;;;;;;;;;;;;;;7.67;100.00;100840.22;5095627;28;19912;-61
2023/01/12 01:39:37;;;;;;;;;;;;;;;7.65;100.00;100846.63;5079966;28;19999;-61
2023/01/12 01:42:02;;;;;;;;;;;;;;;7.65;100.00;100839.53;5089476;28;20588;-62
2023/01/12 01:44:27;;;;;;;;;;;;;;;7.65;100.00;100836.91;5085617;28;19920;-62
2023/01/12 01:46:54;;;;;;;;;;;;;;;7.64;100.00;100851.09;5080912;28;20054;-62
2023/01/12 01:49:22;;;;;;;;;;;;;;;7.64;100.00;100844.97;5078888;28;20108;-62
2023/01/12 01:51:48;;;;;;;;;;;;;;;7.63;100.00;100836.22;5085850;28;20384;-62
2023/01/12 01:54:14;;;;;;;;;;;;;;;7.59;100.00;100832.22;5077151;28;20618;-62
2023/01/12 01:56:39;;;;;;;;;;;;;;;7.58;100.00;100838.50;5085677;28;20007;-64
2023/01/12 01:59:11;;;;;;;;;;;;;;;7.57;100.00;100841.28;5082319;28;20455;-62
2023/01/12 02:01:37;;;;;;;;;;;;;;;7.55;100.00;100820.28;5074512;28;19917;-63
2023/01/12 02:04:03;;;;;;;;;;;;;;;7.55;100.00;100832.69;5082639;28;19912;-62
2023/01/12 02:06:28;;;;;;;;;;;;;;;7.54;100.00;100831.03;5077532;28;20264;-63
2023/01/12 02:08:56;;;;;;;;;;;;;;;7.54;100.00;100826.56;5083871;28;19924;-63
2023/01/12 02:17:00;;;;;;;;;;;;;;;7.50;100.00;100809.31;5085451;28;20445;-62
2023/01/12 02:19:28;;;;;;;;;;;;;;;7.47;100.00;100802.53;5082324;28;19916;-62
2023/01/12 02:22:12;;;;;;;;;;;;;;;7.46;100.00;100797.41;5077634;28;20295;-62
2023/01/12 02:24:43;;;;;;;;;;;;;;;7.44;100.00;100796.72;5076830;28;20411;-63
2023/01/12 02:27:28;;;;;;;;;;;;;;;7.44;100.00;100797.56;5081013;28;19957;-64
2023/01/12 02:30:00;;;;;;;;;;;;;;;7.45;100.00;100793.09;5085779;28;19924;-62
2023/01/12 02:32:33;;;;;;;;;;;;;;;7.46;100.00;100789.47;5073503;28;19977;-62
2023/01/12 02:35:17;;;;;;;;;;;;;;;7.46;100.00;100785.03;5086795;28;19923;-63
2023/01/12 02:37:56;;;;;;;;;;;;;;;7.47;100.00;100762.91;5084625;28;19930;-62
2023/01/12 02:40:33;;;;;;;;;;;;;;;7.48;100.00;100776.94;5080235;28;20405;-62
2023/01/12 02:43:10;;;;;;;;;;;;;;;7.49;100.00;100757.47;5086746;28;19954;-63
2023/01/12 02:45:44;;;;;;;;;;;;;;;7.50;100.00;100748.56;5083671;28;19999;-62
2023/01/12 02:48:17;;;;;;;;;;;;;;;7.51;100.00;100762.59;5078991;28;19998;-63
2023/01/12 02:50:46;;;;;;;;;;;;;;;7.53;100.00;100758.84;5082653;28;19912;-62
2023/01/12 02:53:16;;;;;;;;;;;;;;;7.52;100.00;100749.25;5076472;28;19923;-62
2023/01/12 02:55:42;;;;;;;;;;;;;;;7.51;100.00;100746.75;5080749;28;19921;-62
2023/01/12 02:58:10;;;;;;;;;;;;;;;7.51;100.00;100741.44;5088340;28;19920;-62
2023/01/12 03:00:36;;;;;;;;;;;;;;;7.53;100.00;100732.41;5080340;28;19922;-63
2023/01/12 03:03:02;;;;;;;;;;;;;;;7.54;100.00;100728.78;5087513;28;19969;-62
2023/01/12 03:05:27;;;;;;;;;;;;;;;7.54;100.00;100720.03;5085885;28;19916;-63
2023/01/12 03:07:54;;;;;;;;;;;;;;;7.54;100.00;100720.03;5081527;28;19974;-62
2023/01/12 03:10:39;;;;;;;;;;;;;;;7.53;100.00;100734.22;5080391;28;19923;-63
2023/01/12 03:13:07;;;;;;;;;;;;;;;7.53;100.00;100710.44;5070578;28;20424;-63
2023/01/12 03:15:34;;;;;;;;;;;;;;;7.53;100.00;100691.97;5091925;28;19924;-62
2023/01/12 03:18:03;;;;;;;;;;;;;;;7.53;100.00;100684.84;5086487;28;20559;-63
2023/01/12 03:20:33;;;;;;;;;;;;;;;7.54;100.00;100690.97;5073163;28;20010;-65
2023/01/12 03:23:00;;;;;;;;;;;;;;;7.52;100.00;100693.78;5078199;28;19951;-63
2023/01/12 03:25:27;;;;;;;;;;;;;;;7.52;100.00;100687.63;5074874;28;20521;-63
2023/01/12 03:27:55;;;;;;;;;;;;;;;7.53;100.00;100668.19;5093103;28;19913;-63
2023/01/12 03:30:22;;;;;;;;;;;;;;;7.52;100.00;100669.13;5084366;28;19916;-62
2023/01/12 03:32:48;;;;;;;;;;;;;;;7.52;100.00;100683.19;5075295;28;19995;-63
2023/01/12 03:35:13;;;;;;;;;;;;;;;7.54;100.00;100662.72;5084429;28;20602;-63
2023/01/12 03:37:43;;;;;;;;;;;;;;;7.55;100.00;100668.84;5079608;28;19973;-63
2023/01/12 03:40:15;;;;;;;;;;;;;;;7.56;100.00;100665.22;5069543;28;19924;-63
2023/01/12 03:42:49;;;;;;;;;;;;;;;7.55;100.00;100651.19;5084378;28;19920;-63
2023/01/12 03:45:26;;;;;;;;;;;;;;;7.56;100.00;100644.06;5080546;28;19916;-64
2023/01/12 03:47:54;;;;;;;;;;;;;;;7.54;100.00;100623.09;5072702;28;20038;-62
2023/01/12 03:50:22;;;;;;;;;;;;;;;7.53;100.00;100624.09;5076747;28;20494;-63
2023/01/12 03:52:48;;;;;;;;;;;;;;;7.53;100.00;100612.69;5076687;28;20393;-63
2023/01/12 03:55:15;;;;;;;;;;;;;;;7.54;100.00;100607.25;5081069;28;20506;-63
2023/01/12 03:57:42;;;;;;;;;;;;;;;7.53;100.00;100607.41;5095802;28;20018;-64
2023/01/12 04:00:09;;;;;;;;;;;;;;;7.51;100.00;100594.31;5079902;28;19916;-63
2023/01/12 04:02:34;;;;;;;;;;;;;;;7.50;100.00;100586.53;5081075;28;19920;-63
2023/01/12 04:04:59;;;;;;;;;;;;;;;7.49;100.00;100583.06;5086444;28;20497;-64
2023/01/12 04:07:25;;;;;;;;;;;;;;;7.49;100.00;100567.22;5082711;28;19989;-64
2023/01/12 04:09:50;;;;;;;;;;;;;;;7.48;100.00;100560.28;5083816;28;19955;-63
2023/01/12 04:12:15;;;;;;;;;;;;;;;7.48;100.00;100533.88;5080981;28;20260;-64
2023/01/12 04:14:42;;;;;;;;;;;;;;;7.48;100.00;100544.44;5085911;28;19955;-63
2023/01/12 04:17:08;;;;;;;;;;;;;;;7.50;100.00;100529.25;5085625;28;19916;-64
2023/01/12 04:19:33;;;;;;;;;;;;;;;7.51;100.00;100511.56;5082141;28;20371;-63
2023/01/12 04:24:42;;;;;;;;;;;;;;;7.54;100.00;100498.91;5083295;28;19923;-63
2023/01/12 04:27:08;;;;;;;;;;;;;;;7.59;100.00;100514.28;5086721;28;19912;-63
2023/01/12 04:29:34;;;;;;;;;;;;;;;7.59;100.00;100499.25;5084584;28;19916;-63
2023/01/12 04:31:59;;;;;;;;;;;;;;;7.60;100.00;100494.78;5086470;28;19920;-64
2023/01/12 04:34:24;;;;;;;;;;;;;;;7.59;100.00;100495.78;5084645;28;19993;-63
2023/01/12 04:36:49;;;;;;;;;;;;;;;7.59;100.00;100480.75;5082417;28;19917;-64
2023/01/12 04:39:14;;;;;;;;;;;;;;;7.60;100.00;100481.56;5087011;28;20391;-63
2023/01/12 04:41:40;;;;;;;;;;;;;;;7.63;100.00;100473.34;5097191;28;19916;-64
2023/01/12 04:44:05;;;;;;;;;;;;;;;7.63;100.00;100471.50;5089653;28;19927;-63
2023/01/12 04:46:30;;;;;;;;;;;;;;;7.61;100.00;100433.84;5079633;28;19913;-63
2023/01/12 04:48:55;;;;;;;;;;;;;;;7.60;100.00;100429.56;5098839;28;19918;-63
2023/01/12 04:51:20;;;;;;;;;;;;;;;7.59;100.00;100449.03;5089986;28;19912;-63
2023/01/12 04:53:47;;;;;;;;;;;;;;;7.61;100.00;100448.88;5090112;28;19962;-64
2023/01/12 04:56:12;;;;;;;;;;;;;;;7.62;100.00;100445.25;5082304;28;19925;-64
2023/01/12 04:58:37;;;;;;;;;;;;;;;7.61;100.00;100475.31;5084356;28;19931;-63
2023/01/12 05:01:10;;;;;;;;;;;;;;;7.60;100.00;100445.41;5091250;28;19946;-64
2023/01/12 05:03:35;;;;;;;;;;;;;;;7.60;100.00;100440.13;5091066;28;19932;-64
2023/01/12 05:06:01;;;;;;;;;;;;;;;7.59;100.00;100446.41;5084726;28;19920;-64
2023/01/12 05:11:10;;;;;;;;;;;;;;;7.60;100.00;100478.94;5079954;28;20306;-63
2023/01/12 05:13:35;;;;;;;;;;;;;;;7.61;100.00;100459.44;5078546;28;19916;-63
2023/01/12 05:16:10;;;;;;;;;;;;;;;7.59;100.00;100435.00;5089812;28;19916;-63
2023/01/12 05:18:36;;;;;;;;;;;;;;;7.59;100.00;100442.94;5077363;28;19943;-64
2023/01/12 05:21:01;;;;;;;;;;;;;;;7.60;100.00;100405.78;5080146;28;20348;-64
2023/01/12 05:23:26;;;;;;;;;;;;;;;7.60;100.00;100416.34;5082909;28;19919;-64
2023/01/12 05:25:51;;;;;;;;;;;;;;;7.60;100.00;100431.38;5080488;28;19916;-65
2023/01/12 05:28:16;;;;;;;;;;;;;;;7.61;100.00;100436.50;5074257;28;19924;-65
2023/01/12 05:30:42;;;;;;;;;;;;;;;7.60;100.00;100432.19;5081905;28;19916;-64
2023/01/12 05:33:10;;;;;;;;;;;;;;;7.60;100.00;100429.56;5085224;28;19924;-65
2023/01/12 05:35:37;;;;;;;;;;;;;;;7.61;100.00;100428.56;5077056;28;19939;-64
2023/01/12 05:38:02;;;;;;;;;;;;;;;7.64;100.00;100427.41;5081442;28;19928;-65
2023/01/12 05:40:27;;;;;;;;;;;;;;;7.61;100.00;100399.50;5071080;28;20490;-66
2023/01/12 05:45:36;;;;;;;;;;;;;;;7.61;100.00;100394.22;5077130;28;19959;-65
2023/01/12 05:48:01;;;;;;;;;;;;;;;7.65;100.00;100403.47;5084670;28;19964;-66
2023/01/12 05:50:26;;;;;;;;;;;;;;;7.65;100.00;100405.28;5088294;28;19965;-65
2023/01/12 05:52:52;;;;;;;;;;;;;;;7.67;100.00;100398.84;5076186;28;19923;-65
2023/01/12 05:55:17;;;;;;;;;;;;;;;7.68;100.00;100420.81;5076535;28;20055;-65
2023/01/12 05:57:42;;;;;;;;;;;;;;;7.68;100.00;100413.72;5081089;28;19920;-65
2023/01/12 06:00:08;;;;;;;;;;;;;;;7.68;100.00;100403.13;5081468;28;20061;-64
2023/01/12 06:02:33;;;;;;;;;;;;;;;7.70;100.00;100397.69;5082979;28;19916;-64
2023/01/12 06:04:58;;;;;;;;;;;;;;;7.69;100.00;100396.88;5073825;28;20031;-65
2023/01/12 06:07:23;;;;;;;;;;;;;;;7.71;100.00;100409.91;5082170;28;19920;-64
2023/01/12 06:09:48;;;;;;;;;;;;;;;7.73;100.00;100410.56;5077438;28;19959;-64
2023/01/12 06:14:57;;;;;;;;;;;;;;;7.75;100.00;100395.38;5076137;28;19940;-64
2023/01/12 06:17:22;;;;;;;;;;;;;;;7.75;100.00;100401.50;5081310;28;20380;-65
2023/01/12 06:19:47;;;;;;;;;;;;;;;7.76;100.00;100403.16;5073337;28;20296;-65
2023/01/12 06:22:12;;;;;;;;;;;;;;;7.80;100.00;100398.34;5084144;28;19959;-65
2023/01/12 06:24:38;;;;;;;;;;;;;;;7.83;100.00;100411.28;5089566;28;19916;-64
2023/01/12 06:27:03;;;;;;;;;;;;;;;7.85;100.00;100385.50;5072310;28;19928;-65
2023/01/12 06:29:28;;;;;;;;;;;;;;;7.87;100.00;100401.19;5083916;28;19911;-64
2023/01/12 06:31:53;;;;;;;;;;;;;;;7.89;100.00;100396.56;5092968;28;20315;-66
2023/01/12 06:34:19;;;;;;;;;;;;;;;7.91;100.00;100399.88;5085271;28;19920;-66
2023/01/12 06:36:44;;;;;;;;;;;;;;;7.94;100.00;100402.19;5079005;28;19939;-65
2023/01/12 06:39:12;;;;;;;;;;;;;;;7.95;100.00;100401.19;5088056;28;19923;-65
2023/01/12 06:44:21;;;;;;;;;;;;;;;7.96;100.00;100410.78;5079942;28;19992;-65
2023/01/12 06:46:46;;;;;;;;;;;;;;;7.96;100.00;100418.72;5076022;28;20002;-64
2023/01/12 06:49:12;;;;;;;;;;;;;;;7.97;100.00;100407.13;5083730;28;19919;-65
2023/01/12 06:51:37;;;;;;;;;;;;;;;7.98;100.00;100408.78;5076715;28;19920;-65
2023/01/12 06:54:02;;;;;;;;;;;;;;;7.99;100.00;100413.09;5081572;28;19935;-65
2023/01/12 06:56:28;;;;;;;;;;;;;;;8.01;100.00;100401.34;5078618;28;20438;-65
2023/01/12 06:58:53;;;;;;;;;;;;;;;8.02;100.00;100397.72;5071794;28;19920;-65
2023/01/12 07:01:18;;;;;;;;;;;;;;;8.03;100.00;100404.66;5071890;28;19928;-65
2023/01/12 07:03:43;;;;;;;;;;;;;;;8.06;100.00;100416.72;5075570;28;19931;-65
2023/01/12 07:06:09;;;;;;;;;;;;;;;8.07;100.00;100419.19;5080541;28;19927;-64
2023/01/12 07:08:34;;;;;;;;;;;;;;;8.06;100.00;100420.19;5080764;28;19921;-65
2023/01/12 07:11:01;;;;;;;;;;;;;;;8.09;100.00;100411.09;5080445;28;19917;-66
2023/01/12 07:13:26;;;;;;;;;;;;;;;8.10;100.00;100410.13;5080192;28;19924;-66
2023/01/12 07:15:51;;;;;;;;;;;;;;;8.09;100.00;100413.75;5084977;28;20489;-65
2023/01/12 07:18:16;;;;;;;;;;;;;;;8.09;100.00;100426.97;5078006;28;19916;-65
2023/01/12 07:20:41;;;;;;;;;;;;;;;8.11;100.00;100427.66;5080043;28;21750;-65
2023/01/12 07:23:06;;;;;;;;;;;;;;;8.12;100.00;100418.72;5077874;28;19916;-65
2023/01/12 07:25:32;;;;;;;;;;;;;;;8.12;100.00;100425.84;5075889;28;19916;-67
2023/01/12 07:27:57;;;;;;;;;;;;;;;8.12;100.00;100423.19;5077083;28;19969;-65
2023/01/12 07:30:23;;;;;;;;;;;;;;;8.12;100.00;100429.31;5076861;28;20037;-66
2023/01/12 07:32:48;;;;;;;;;;;;;;;8.15;100.00;100436.91;5076835;28;19920;-66
2023/01/12 07:35:13;;;;;;;;;;;;;;;8.16;100.00;100419.22;5086286;28;19911;-65
2023/01/12 07:37:38;;;;;;;;;;;;;;;8.15;100.00;100428.97;5080240;28;19966;-64
2023/01/12 07:40:04;;;;;;;;;;;;;;;8.16;100.00;100437.75;5075326;28;19927;-65
2023/01/12 07:42:29;;;;;;;;;;;;;;;8.15;100.00;100431.63;5082608;28;19922;-65
2023/01/12 07:44:54;;;;;;;;;;;;;;;8.16;100.00;100443.84;5076448;28;19916;-65
2023/01/12 07:47:20;;;;;;;;;;;;;;;8.17;100.00;100445.50;5078654;28;19924;-65
2023/01/12 07:49:45;;;;;;;;;;;;;;;8.17;100.00;100440.22;5074780;28;20319;-64
2023/01/12 07:52:11;;;;;;;;;;;;;;;8.18;100.00;100433.13;5083792;28;19922;-65
2023/01/12 07:54:36;;;;;;;;;;;;;;;8.19;100.00;100435.59;5077817;28;20291;-65
2023/01/12 07:57:01;;;;;;;;;;;;;;;8.21;100.00;100444.19;5073382;28;20644;-65
2023/01/12 07:59:26;;;;;;;;;;;;;;;8.23;100.00;100458.06;5075882;28;20367;-66
2023/01/12 08:01:53;;;;;;;;;;;;;;;8.26;100.00;100463.03;5077617;28;19990;-65
2023/01/12 08:04:18;;;;;;;;;;;;;;;8.23;100.00;100457.25;5075374;28;19920;-65
2023/01/12 08:06:43;;;;;;;;;;;;;;;8.24;100.00;100445.66;5076662;28;20349;-65
2023/01/12 08:09:09;;;;;;;;;;;;;;;8.29;100.00;100472.44;5077548;28;19927;-65
2023/01/12 08:11:36;;;;;;;;;;;;;;;8.28;100.00;100466.34;5076284;28;21567;-64
2023/01/12 08:14:03;;;;;;;;;;;;;;;8.28;100.00;100471.63;5081366;28;19930;-65
2023/01/12 08:16:32;;;;;;;;;;;;;;;8.29;100.00;100469.81;5078113;28;19928;-64
2023/01/12 08:19:00;;;;;;;;;;;;;;;8.32;100.00;100477.41;5082192;28;19925;-64
2023/01/12 08:21:28;;;;;;;;;;;;;;;8.34;100.00;100468.34;5083394;28;19923;-65
2023/01/12 08:23:57;;;;;;;;;;;;;;;8.35;100.00;100466.53;5076675;28;19920;-65
2023/01/12 08:26:26;;;;;;;;;;;;;;;8.36;100.00;100458.41;5086049;28;20002;-64
2023/01/12 08:28:57;;;;;;;;;;;;;;;8.38;100.00;100471.47;5084195;28;19939;-64
2023/01/12 08:31:23;;;;;;;;;;;;;;;8.41;100.00;100467.72;5087995;28;19948;-65
2023/01/12 08:33:49;;;;;;;;;;;;;;;8.42;100.00;100470.19;5082865;28;19924;-64
2023/01/12 08:36:15;;;;;;;;;;;;;;;8.43;100.00;100468.38;5079618;28;20408;-64
2023/01/12 08:38:40;;;;;;;;;;;;;;;8.46;100.00;100486.56;5095159;28;19919;-64
2023/01/12 08:44:02;;;;;;;;;;;;;;;8.48;100.00;100476.63;5084872;28;20580;-63
2023/01/12 08:46:28;;;;;;;;;;;;;;;8.51;100.00;100478.94;5078107;28;19916;-64
2023/01/12 08:48:53;;;;;;;;;;;;;;;8.53;100.00;100485.72;5084299;28;19916;-64
2023/01/12 08:51:19;;;;;;;;;;;;;;;8.53;100.00;100490.19;5082428;28;19934;-65
2023/01/12 08:53:44;;;;;;;;;;;;;;;8.55;100.00;100491.66;5081848;28;19926;-65
2023/01/12 08:56:09;;;;;;;;;;;;;;;8.54;100.00;100484.72;5064191;28;20372;-64
2023/01/12 08:58:34;;;;;;;;;;;;;;;8.54;100.00;100497.97;5090162;28;19958;-65
2023/01/12 09:01:10;;;;;;;;;;;;;;;8.57;100.00;100502.09;5077899;28;19924;-64
2023/01/12 09:03:36;;;;;;;;;;;;;;;8.59;100.00;100494.81;5083805;28;19921;-64
2023/01/12 09:06:13;;;;;;;;;;;;;;;8.57;100.00;100508.22;5086474;28;19916;-64
2023/01/12 09:08:39;;;;;;;;;;;;;;;8.59;100.00;100498.28;5076368;28;19928;-66
2023/01/12 09:11:04;;;;;;;;;;;;;;;8.61;100.00;100498.94;5076380;28;19919;-65
2023/01/12 09:13:31;;;;;;;;;;;;;;;8.62;100.00;100494.47;5082816;28;19931;-66
2023/01/12 09:16:00;;;;;;;;;;;;;;;8.64;100.00;100503.91;5080887;28;19999;-64
2023/01/12 09:18:25;;;;;;;;;;;;;;;8.67;100.00;100500.09;5079005;28;19924;-64
2023/01/12 09:20:51;;;;;;;;;;;;;;;8.68;100.00;100509.72;5080433;28;19920;-64
2023/01/12 09:23:16;;;;;;;;;;;;;;;8.68;100.00;100523.78;5080213;28;20517;-64
2023/01/12 09:25:41;;;;;;;;;;;;;;;8.73;100.00;100511.84;5074484;28;20010;-66
2023/01/12 09:28:06;;;;;;;;;;;;;;;8.73;100.00;100507.41;5089755;28;20382;-64
2023/01/12 09:30:31;;;;;;;;;;;;;;;8.74;100.00;100506.41;5082115;28;19958;-64
2023/01/12 09:32:56;;;;;;;;;;;;;;;8.76;100.00;100519.47;5087282;28;20361;-64
2023/01/12 09:35:22;;;;;;;;;;;;;;;8.77;100.00;100513.19;5085558;28;19919;-65
2023/01/12 09:37:47;;;;;;;;;;;;;;;8.79;100.00;100521.78;5083091;28;19917;-64
2023/01/12 09:40:13;;;;;;;;;;;;;;;8.79;100.00;100513.84;5078601;28;19919;-64
2023/01/12 09:48:08;;;;;;;;;;;;;;;8.80;100.00;100534.84;5072837;28;20381;-65
2023/01/12 09:50:35;;;;;;;;;;;;;;;8.80;100.00;100534.84;5083098;28;21091;-64
2023/01/12 09:53:00;;;;;;;;;;;;;;;8.80;100.00;100524.25;5083023;28;20414;-64
2023/01/12 09:55:46;;;;;;;;;;;;;;;8.81;100.00;100535.69;5078569;28;19948;-64
2023/01/12 09:58:14;;;;;;;;;;;;;;;8.85;100.00;100537.00;5090373;28;20002;-64
2023/01/12 10:00:39;;;;;;;;;;;;;;;8.86;100.00;100542.13;5084523;28;19958;-63
2023/01/12 10:03:04;;;;;;;;;;;;;;;8.88;100.00;100549.91;5091482;28;19962;-64
2023/01/12 10:05:53;;;;;;;;;;;;;;;8.89;100.00;100552.38;5095690;28;19961;-64
2023/01/12 10:08:27;;;;;;;;;;;;;;;8.90;100.00;100555.84;5076569;28;19912;-64
2023/01/12 10:10:58;;;;;;;;;;;;;;;8.92;100.00;100549.38;5081319;28;20365;-64
2023/01/12 10:13:27;;;;;;;;;;;;;;;8.93;100.00;100550.22;5077750;28;19916;-64
2023/01/12 10:15:58;;;;;;;;;;;;;;;8.94;100.00;100555.34;5086378;28;19927;-64
2023/01/12 10:18:27;;;;;;;;;;;;;;;8.97;100.00;100562.16;5086297;28;20302;-64
2023/01/12 10:20:52;;;;;;;;;;;;;;;8.96;100.00;100561.34;5081733;28;19952;-64
2023/01/12 10:23:23;;;;;;;;;;;;;;;8.97;100.00;100556.84;5085037;28;19947;-64
2023/01/12 10:26:00;;;;;;;;;;;;;;;8.96;100.00;100561.34;5086205;28;19912;-64
2023/01/12 10:28:30;;;;;;;;;;;;;;;8.96;100.00;100577.22;5081656;28;20284;-64
2023/01/12 10:30:56;;;;;;;;;;;;;;;8.97;100.00;100555.03;5079198;28;20334;-64
2023/01/12 10:33:22;;;;;;;;;;;;;;;8.96;100.00;100566.63;5084185;28;19980;-65
2023/01/12 10:35:50;;;;;;;;;;;;;;;8.97;100.00;100568.28;5096535;28;19981;-64
2023/01/12 10:38:26;;;;;;;;;;;;;;;8.98;100.00;100567.28;5084785;28;19917;-64
2023/01/12 10:41:02;;;;;;;;;;;;;;;8.98;100.00;100566.47;5081007;28;20003;-64
2023/01/12 10:43:33;;;;;;;;;;;;;;;8.99;100.00;100565.47;5081473;28;19912;-63
2023/01/12 10:46:03;;;;;;;;;;;;;;;8.98;100.00;100558.50;5080235;28;19920;-64
2023/01/12 10:48:29;;;;;;;;;;;;;;;8.98;100.00;100553.22;5080459;28;19927;-64
2023/01/12 10:50:56;;;;;;;;;;;;;;;8.98;100.00;100554.03;5078379;28;19916;-64
2023/01/12 10:53:25;;;;;;;;;;;;;;;8.97;100.00;100559.50;5084012;28;19916;-65
2023/01/12 10:55:50;;;;;;;;;;;;;;;8.99;100.00;100560.16;5083445;28;19912;-64
2023/01/12 10:58:26;;;;;;;;;;;;;;;8.99;100.00;100561.00;5079967;28;20398;-64
2023/01/12 11:00:52;;;;;;;;;;;;;;;8.99;100.00;100568.94;5083902;28;19916;-64
2023/01/12 11:03:31;;;;;;;;;;;;;;;9.00;100.00;100553.88;5081855;28;20376;-63
2023/01/12 11:06:13;;;;;;;;;;;;;;;9.03;100.00;100561.47;5088444;28;19912;-64
2023/01/12 11:08:38;;;;;;;;;;;;;;;9.03;100.00;100558.00;5084119;28;19912;-63
2023/01/12 11:11:22;;;;;;;;;;;;;;;9.04;100.00;100567.59;5097594;28;20577;-65
2023/01/12 11:13:50;;;;;;;;;;;;;;;9.06;100.00;100550.56;5081636;28;19962;-65
2023/01/12 11:16:23;;;;;;;;;;;;;;;9.07;100.00;100551.38;5069767;28;20005;-64
2023/01/12 11:18:57;;;;;;;;;;;;;;;9.08;100.00;100547.72;5081857;28;19955;-64
2023/01/12 11:21:24;;;;;;;;;;;;;;;9.11;100.00;100558.81;5078581;28;19917;-64
2023/01/12 11:24:04;;;;;;;;;;;;;;;9.12;100.00;100554.34;5082675;28;19923;-64
2023/01/12 11:26:35;;;;;;;;;;;;;;;9.12;100.00;100544.56;5087104;28;20892;-64
2023/01/12 11:29:07;;;;;;;;;;;;;;;9.15;100.00;100546.06;5081962;28;20010;-65
2023/01/12 11:31:37;;;;;;;;;;;;;;;9.17;100.00;100552.84;5083703;28;20497;-63
2023/01/12 11:34:15;;;;;;;;;;;;;;;9.20;100.00;100564.91;5087571;28;20288;-65
2023/01/12 11:36:42;;;;;;;;;;;;;;;9.19;100.00;100557.97;5091850;28;19916;-63
2023/01/12 11:39:14;;;;;;;;;;;;;;;9.22;100.00;100570.88;5081466;28;19937;-66
2023/01/12 11:43:47;;;;;;;;;;;;;;;9.22;100.00;100568.22;5082376;28;19950;-65
2023/01/12 11:44:47;;;;;;;;;;;;;;;9.25;100.00;100587.28;5083379;28;19913;-64
2023/01/12 11:47:14;;;;;;;;;;;;;;;9.25;100.00;100586.44;5082919;28;19912;-64
2023/01/12 11:49:45;;;;;;;;;;;;;;;9.24;100.00;100587.44;5079469;28;20368;-65
2023/01/12 11:52:12;;;;;;;;;;;;;;;9.24;100.00;100585.59;5086539;28;20466;-65
2023/01/12 11:54:38;;;;;;;;;;;;;;;9.25;100.00;100591.72;5077185;28;19947;-65
2023/01/12 11:57:41;;;;;;;;;;;;;;;9.24;100.00;100587.44;5089806;28;21174;-64
2023/01/12 12:00:12;;;;;;;;;;;;;;;9.23;100.00;100578.66;5018219;28;19927;-63
2023/01/12 12:02:45;;;;;;;;;;;;;;;9.25;100.00;100597.03;5033998;28;20369;-65
2023/01/12 12:05:19;;;;;;;;;;;;;;;9.24;100.00;100585.59;5048306;28;19927;-64
2023/01/12 12:07:48;;;;;;;;;;;;;;;9.25;100.00;100591.72;5084886;28;19916;-64
2023/01/12 12:10:17;;;;;;;;;;;;;;;9.24;100.00;100590.91;5086380;28;19960;-64
2023/01/12 12:12:51;;;;;;;;;;;;;;;9.25;100.00;100589.94;5088740;28;19975;-64
2023/01/12 12:15:25;;;;;;;;;;;;;;;9.24;100.00;100580.31;5079046;28;20011;-65
2023/01/12 12:18:09;;;;;;;;;;;;;;;9.23;100.00;100586.59;5082643;28;19916;-65
2023/01/12 12:20:41;;;;;;;;;;;;;;;9.22;100.00;100584.13;5084128;28;19916;-65
2023/01/12 12:23:13;;;;;;;;;;;;;;;9.21;100.00;100571.88;5083581;28;20022;-63
2023/01/12 12:25:38;;;;;;;;;;;;;;;9.23;100.00;100583.94;5086776;28;19959;-65
2023/01/12 12:28:17;;;;;;;;;;;;;;;9.21;100.00;100580.66;5081666;28;19969;-64
2023/01/12 12:30:42;;;;;;;;;;;;;;;9.20;100.00;100567.56;5080987;28;19912;-64
2023/01/12 12:33:27;;;;;;;;;;;;;;;9.20;100.00;100572.88;5086202;28;20010;-64
2023/01/12 12:36:02;;;;;;;;;;;;;;;9.19;100.00;100565.91;5074192;28;20375;-64
2023/01/12 12:38:37;;;;;;;;;;;;;;;9.17;100.00;100560.78;5078732;28;20011;-63
2023/01/12 12:47:27;;;;;;;;;;;;;;;9.18;100.00;100482.13;5092350;28;20424;-65
2023/01/12 12:49:54;;;;;;;;;;;;;;;9.17;100.00;100501.69;5077789;28;19970;-64
2023/01/12 12:52:20;;;;;;;;;;;;;;;9.17;100.00;100496.38;5083421;28;19917;-64
2023/01/12 12:54:46;;;;;;;;;;;;;;;9.18;100.00;100480.31;5079284;28;19916;-64
2023/01/12 12:57:12;;;;;;;;;;;;;;;9.17;100.00;100517.56;5078285;28;19916;-63
2023/01/12 12:59:37;;;;;;;;;;;;;;;9.15;100.00;100483.31;5085474;28;19916;-64
2023/01/12 13:02:02;;;;;;;;;;;;;;;9.15;100.00;100485.94;5097822;28;19924;-64
2023/01/12 13:04:43;;;;;;;;;;;;;;;9.17;100.00;100483.97;5082852;28;20007;-65
2023/01/12 13:07:17;;;;;;;;;;;;;;;9.16;100.00;100490.25;5100858;28;19949;-64
2023/01/12 13:09:42;;;;;;;;;;;;;;;9.18;100.00;100495.38;5080829;28;19952;-64
2023/01/12 13:12:16;;;;;;;;;;;;;;;9.16;100.00;100492.91;5088057;28;19966;-65
2023/01/12 13:14:42;;;;;;;;;;;;;;;9.15;100.00;100485.13;5079676;28;19912;-63
2023/01/12 13:17:07;;;;;;;;;;;;;;;9.15;100.00;100495.72;5084253;28;20338;-64